Alice, Texas
Current Conditions -  °F | °C
As of 3:53 AM on Monday 29 Dec 2014 (Local Time) from KALI Reporting Station
Clear Clear  
Wind Chill:   Ceiling: Unl
Heat Index:   Visibility: 8mi
Dew Point:   Wind: 3mph
Humidity: 93%   Direction: 320°NW
Pressure: 30.14"   Gusts: NA
Location:  27.75°N, 98.06°W
Report Text: KALI 290953Z AUTO 32003KT 8SM CLR 03/02 A3014 RMK AO2 SLP207 T00330022 $
Loading
Personal Weather Stations






























Interactive Weather Map New forecast layout! Learn more

10-Day Weather Forecast

Advertisements
Track Severe Weather on mobile